sensor_id;sensor_type;location;lat;lon;timestamp;P1;durP1;ratioP1;P2;durP2;ratioP2
77598;SDS011;66758;52.078;5.070;2023-09-18T00:01:00;21.07;;;15.03;;
77598;SDS011;66758;52.078;5.070;2023-09-18T00:03:26;20.20;;;14.52;;
77598;SDS011;66758;52.078;5.070;2023-09-18T00:05:51;20.80;;;14.37;;
77598;SDS011;66758;52.078;5.070;2023-09-18T00:08:17;21.10;;;14.15;;
77598;SDS011;66758;52.078;5.070;2023-09-18T00:10:48;21.23;;;14.43;;
77598;SDS011;66758;52.078;5.070;2023-09-18T00:13:16;21.27;;;14.02;;
77598;SDS011;66758;52.078;5.070;2023-09-18T00:15:41;19.90;;;13.70;;
77598;SDS011;66758;52.078;5.070;2023-09-18T00:18:09;18.77;;;13.93;;
77598;SDS011;66758;52.078;5.070;2023-09-18T00:20:34;20.33;;;13.77;;
77598;SDS011;66758;52.078;5.070;2023-09-18T00:23:00;20.17;;;13.37;;
77598;SDS011;66758;52.078;5.070;2023-09-18T00:25:25;19.50;;;13.83;;
77598;SDS011;66758;52.078;5.070;2023-09-18T00:27:51;21.27;;;14.07;;
77598;SDS011;66758;52.078;5.070;2023-09-18T00:30:20;18.25;;;12.73;;
77598;SDS011;66758;52.078;5.070;2023-09-18T00:32:46;18.33;;;12.75;;
77598;SDS011;66758;52.078;5.070;2023-09-18T00:35:12;18.25;;;12.98;;
77598;SDS011;66758;52.078;5.070;2023-09-18T00:37:37;20.60;;;13.17;;
77598;SDS011;66758;52.078;5.070;2023-09-18T00:40:06;18.83;;;13.35;;
77598;SDS011;66758;52.078;5.070;2023-09-18T00:42:32;20.20;;;14.20;;
77598;SDS011;66758;52.078;5.070;2023-09-18T00:44:57;18.43;;;13.17;;
77598;SDS011;66758;52.078;5.070;2023-09-18T00:47:23;20.63;;;14.52;;
77598;SDS011;66758;52.078;5.070;2023-09-18T00:49:49;18.63;;;14.00;;
77598;SDS011;66758;52.078;5.070;2023-09-18T00:52:16;19.92;;;13.85;;
77598;SDS011;66758;52.078;5.070;2023-09-18T00:54:44;17.08;;;13.45;;
77598;SDS011;66758;52.078;5.070;2023-09-18T00:57:11;21.17;;;13.98;;
77598;SDS011;66758;52.078;5.070;2023-09-18T00:59:38;18.30;;;13.00;;
77598;SDS011;66758;52.078;5.070;2023-09-18T01:02:03;19.40;;;13.48;;
77598;SDS011;66758;52.078;5.070;2023-09-18T01:04:29;19.27;;;13.47;;
77598;SDS011;66758;52.078;5.070;2023-09-18T01:06:55;19.65;;;12.98;;
77598;SDS011;66758;52.078;5.070;2023-09-18T01:09:23;18.48;;;13.35;;
77598;SDS011;66758;52.078;5.070;2023-09-18T01:14:29;16.20;;;12.18;;
77598;SDS011;66758;52.078;5.070;2023-09-18T01:16:59;17.65;;;12.68;;
77598;SDS011;66758;52.078;5.070;2023-09-18T01:22:02;19.15;;;13.23;;
77598;SDS011;66758;52.078;5.070;2023-09-18T01:24:27;18.95;;;12.45;;
77598;SDS011;66758;52.078;5.070;2023-09-18T01:26:53;19.83;;;12.90;;
77598;SDS011;66758;52.078;5.070;2023-09-18T01:29:18;22.23;;;14.67;;
77598;SDS011;66758;52.078;5.070;2023-09-18T01:31:44;17.50;;;13.23;;
77598;SDS011;66758;52.078;5.070;2023-09-18T01:34:13;19.25;;;13.50;;
77598;SDS011;66758;52.078;5.070;2023-09-18T01:36:42;18.65;;;13.20;;
77598;SDS011;66758;52.078;5.070;2023-09-18T01:39:09;21.07;;;13.90;;
77598;SDS011;66758;52.078;5.070;2023-09-18T01:41:36;19.23;;;14.88;;
77598;SDS011;66758;52.078;5.070;2023-09-18T01:44:03;19.45;;;14.07;;
77598;SDS011;66758;52.078;5.070;2023-09-18T01:46:29;21.17;;;14.52;;
77598;SDS011;66758;52.078;5.070;2023-09-18T01:48:57;23.08;;;14.82;;
77598;SDS011;66758;52.078;5.070;2023-09-18T01:51:24;24.00;;;14.47;;
77598;SDS011;66758;52.078;5.070;2023-09-18T01:53:49;24.88;;;14.48;;
77598;SDS011;66758;52.078;5.070;2023-09-18T01:56:15;22.23;;;15.87;;
77598;SDS011;66758;52.078;5.070;2023-09-18T01:58:40;23.35;;;16.30;;
77598;SDS011;66758;52.078;5.070;2023-09-18T02:01:05;27.43;;;17.43;;
77598;SDS011;66758;52.078;5.070;2023-09-18T02:03:31;24.93;;;17.33;;
77598;SDS011;66758;52.078;5.070;2023-09-18T02:05:56;22.63;;;17.43;;
77598;SDS011;66758;52.078;5.070;2023-09-18T02:08:22;23.77;;;17.03;;
77598;SDS011;66758;52.078;5.070;2023-09-18T02:10:47;25.33;;;17.00;;
77598;SDS011;66758;52.078;5.070;2023-09-18T02:13:12;26.27;;;17.37;;
77598;SDS011;66758;52.078;5.070;2023-09-18T02:15:38;27.30;;;17.67;;
77598;SDS011;66758;52.078;5.070;2023-09-18T02:18:04;28.63;;;18.25;;
77598;SDS011;66758;52.078;5.070;2023-09-18T02:20:29;27.90;;;18.73;;
77598;SDS011;66758;52.078;5.070;2023-09-18T02:22:54;29.57;;;18.57;;
77598;SDS011;66758;52.078;5.070;2023-09-18T02:25:20;25.25;;;17.60;;
77598;SDS011;66758;52.078;5.070;2023-09-18T02:27:46;27.80;;;19.07;;
77598;SDS011;66758;52.078;5.070;2023-09-18T02:30:11;26.63;;;17.47;;
77598;SDS011;66758;52.078;5.070;2023-09-18T02:32:37;25.35;;;17.25;;
77598;SDS011;66758;52.078;5.070;2023-09-18T02:35:02;26.43;;;16.47;;
77598;SDS011;66758;52.078;5.070;2023-09-18T02:37:29;25.30;;;17.33;;
77598;SDS011;66758;52.078;5.070;2023-09-18T02:39:54;27.30;;;17.50;;
77598;SDS011;66758;52.078;5.070;2023-09-18T02:42:20;25.87;;;17.50;;
77598;SDS011;66758;52.078;5.070;2023-09-18T02:44:45;24.90;;;16.98;;
77598;SDS011;66758;52.078;5.070;2023-09-18T02:47:10;26.53;;;17.60;;
77598;SDS011;66758;52.078;5.070;2023-09-18T02:49:36;23.30;;;16.27;;
77598;SDS011;66758;52.078;5.070;2023-09-18T02:52:02;26.70;;;17.80;;
77598;SDS011;66758;52.078;5.070;2023-09-18T02:54:28;20.73;;;15.03;;
77598;SDS011;66758;52.078;5.070;2023-09-18T02:56:53;23.00;;;15.65;;
77598;SDS011;66758;52.078;5.070;2023-09-18T02:59:19;22.20;;;16.00;;
77598;SDS011;66758;52.078;5.070;2023-09-18T03:01:44;21.47;;;15.00;;
77598;SDS011;66758;52.078;5.070;2023-09-18T03:04:09;20.53;;;14.87;;
77598;SDS011;66758;52.078;5.070;2023-09-18T03:06:37;22.23;;;14.97;;
77598;SDS011;66758;52.078;5.070;2023-09-18T03:09:04;21.45;;;14.02;;
77598;SDS011;66758;52.078;5.070;2023-09-18T03:11:30;23.13;;;15.67;;
77598;SDS011;66758;52.078;5.070;2023-09-18T03:13:55;25.63;;;16.70;;
77598;SDS011;66758;52.078;5.070;2023-09-18T03:16:21;23.30;;;16.07;;
77598;SDS011;66758;52.078;5.070;2023-09-18T03:18:46;26.33;;;16.53;;
77598;SDS011;66758;52.078;5.070;2023-09-18T03:21:11;26.80;;;16.30;;
77598;SDS011;66758;52.078;5.070;2023-09-18T03:23:37;27.00;;;16.63;;
77598;SDS011;66758;52.078;5.070;2023-09-18T03:26:02;26.03;;;17.70;;
77598;SDS011;66758;52.078;5.070;2023-09-18T03:28:27;22.80;;;15.90;;
77598;SDS011;66758;52.078;5.070;2023-09-18T03:30:53;26.77;;;16.67;;
77598;SDS011;66758;52.078;5.070;2023-09-18T03:33:18;22.00;;;15.50;;
77598;SDS011;66758;52.078;5.070;2023-09-18T03:35:47;25.50;;;16.10;;
77598;SDS011;66758;52.078;5.070;2023-09-18T03:38:14;23.90;;;16.23;;
77598;SDS011;66758;52.078;5.070;2023-09-18T03:40:40;19.23;;;14.40;;
77598;SDS011;66758;52.078;5.070;2023-09-18T03:43:06;20.48;;;13.43;;
77598;SDS011;66758;52.078;5.070;2023-09-18T03:45:32;20.20;;;14.20;;
77598;SDS011;66758;52.078;5.070;2023-09-18T03:47:57;22.77;;;15.23;;
77598;SDS011;66758;52.078;5.070;2023-09-18T03:50:23;22.90;;;13.67;;
77598;SDS011;66758;52.078;5.070;2023-09-18T03:52:48;20.40;;;13.15;;
77598;SDS011;66758;52.078;5.070;2023-09-18T03:55:14;18.80;;;12.90;;
77598;SDS011;66758;52.078;5.070;2023-09-18T03:57:39;20.37;;;12.87;;
77598;SDS011;66758;52.078;5.070;2023-09-18T04:00:05;18.50;;;13.02;;
77598;SDS011;66758;52.078;5.070;2023-09-18T04:02:32;21.50;;;13.30;;
77598;SDS011;66758;52.078;5.070;2023-09-18T04:04:58;19.50;;;12.30;;
77598;SDS011;66758;52.078;5.070;2023-09-18T04:07:23;16.07;;;10.90;;
77598;SDS011;66758;52.078;5.070;2023-09-18T04:09:48;16.73;;;10.10;;
77598;SDS011;66758;52.078;5.070;2023-09-18T04:12:14;7.57;;;4.53;;
77598;SDS011;66758;52.078;5.070;2023-09-18T04:14:40;4.17;;;0.93;;
77598;SDS011;66758;52.078;5.070;2023-09-18T04:17:06;2.97;;;0.63;;
77598;SDS011;66758;52.078;5.070;2023-09-18T04:19:31;2.17;;;0.60;;
77598;SDS011;66758;52.078;5.070;2023-09-18T04:21:57;3.87;;;1.13;;
77598;SDS011;66758;52.078;5.070;2023-09-18T04:24:22;6.38;;;2.20;;
77598;SDS011;66758;52.078;5.070;2023-09-18T04:26:48;8.43;;;2.93;;
77598;SDS011;66758;52.078;5.070;2023-09-18T04:29:15;9.32;;;4.47;;
77598;SDS011;66758;52.078;5.070;2023-09-18T04:31:41;10.38;;;6.15;;
77598;SDS011;66758;52.078;5.070;2023-09-18T04:34:07;9.90;;;5.97;;
77598;SDS011;66758;52.078;5.070;2023-09-18T04:36:32;13.63;;;8.20;;
77598;SDS011;66758;52.078;5.070;2023-09-18T04:38:57;14.03;;;8.50;;
77598;SDS011;66758;52.078;5.070;2023-09-18T04:41:23;18.13;;;10.57;;
77598;SDS011;66758;52.078;5.070;2023-09-18T04:43:48;16.37;;;10.80;;
77598;SDS011;66758;52.078;5.070;2023-09-18T04:46:14;16.77;;;10.37;;
77598;SDS011;66758;52.078;5.070;2023-09-18T04:48:39;20.03;;;11.47;;
77598;SDS011;66758;52.078;5.070;2023-09-18T04:51:04;18.92;;;12.20;;
77598;SDS011;66758;52.078;5.070;2023-09-18T04:53:30;18.17;;;12.10;;
77598;SDS011;66758;52.078;5.070;2023-09-18T04:55:57;20.75;;;12.52;;
77598;SDS011;66758;52.078;5.070;2023-09-18T04:58:22;19.83;;;12.20;;
77598;SDS011;66758;52.078;5.070;2023-09-18T05:00:54;16.83;;;11.73;;
77598;SDS011;66758;52.078;5.070;2023-09-18T05:03:20;17.80;;;10.57;;
77598;SDS011;66758;52.078;5.070;2023-09-18T05:05:46;16.15;;;10.75;;
77598;SDS011;66758;52.078;5.070;2023-09-18T05:08:12;18.53;;;12.10;;
77598;SDS011;66758;52.078;5.070;2023-09-18T05:10:37;20.67;;;11.10;;
77598;SDS011;66758;52.078;5.070;2023-09-18T05:13:03;20.38;;;12.73;;
77598;SDS011;66758;52.078;5.070;2023-09-18T05:15:29;24.47;;;12.50;;
77598;SDS011;66758;52.078;5.070;2023-09-18T05:17:55;23.13;;;13.55;;
77598;SDS011;66758;52.078;5.070;2023-09-18T05:20:26;24.58;;;13.82;;
77598;SDS011;66758;52.078;5.070;2023-09-18T05:22:54;20.15;;;13.75;;
77598;SDS011;66758;52.078;5.070;2023-09-18T05:25:21;21.98;;;14.35;;
77598;SDS011;66758;52.078;5.070;2023-09-18T05:27:51;23.70;;;13.17;;
77598;SDS011;66758;52.078;5.070;2023-09-18T05:30:23;20.38;;;14.13;;
77598;SDS011;66758;52.078;5.070;2023-09-18T05:32:56;21.15;;;13.38;;
77598;SDS011;66758;52.078;5.070;2023-09-18T05:35:22;19.52;;;13.23;;
77598;SDS011;66758;52.078;5.070;2023-09-18T05:37:48;23.45;;;13.60;;
77598;SDS011;66758;52.078;5.070;2023-09-18T05:40:16;23.20;;;14.13;;
77598;SDS011;66758;52.078;5.070;2023-09-18T05:42:42;22.25;;;13.65;;
77598;SDS011;66758;52.078;5.070;2023-09-18T05:45:11;20.90;;;14.13;;
77598;SDS011;66758;52.078;5.070;2023-09-18T05:47:38;21.47;;;14.47;;
77598;SDS011;66758;52.078;5.070;2023-09-18T05:50:07;21.58;;;14.45;;
77598;SDS011;66758;52.078;5.070;2023-09-18T05:52:33;26.08;;;14.85;;
77598;SDS011;66758;52.078;5.070;2023-09-18T05:55:00;22.67;;;15.90;;
77598;SDS011;66758;52.078;5.070;2023-09-18T05:57:26;24.50;;;15.10;;
77598;SDS011;66758;52.078;5.070;2023-09-18T05:59:57;23.75;;;14.40;;
77598;SDS011;66758;52.078;5.070;2023-09-18T06:02:23;23.55;;;15.20;;
77598;SDS011;66758;52.078;5.070;2023-09-18T06:04:54;22.70;;;14.55;;
77598;SDS011;66758;52.078;5.070;2023-09-18T06:07:31;18.90;;;13.33;;
77598;SDS011;66758;52.078;5.070;2023-09-18T06:09:57;20.65;;;12.70;;
77598;SDS011;66758;52.078;5.070;2023-09-18T06:12:23;18.25;;;11.18;;
77598;SDS011;66758;52.078;5.070;2023-09-18T06:14:48;16.50;;;10.87;;
77598;SDS011;66758;52.078;5.070;2023-09-18T06:17:14;18.42;;;10.43;;
77598;SDS011;66758;52.078;5.070;2023-09-18T06:19:43;15.77;;;9.25;;
77598;SDS011;66758;52.078;5.070;2023-09-18T06:22:10;14.57;;;8.97;;
77598;SDS011;66758;52.078;5.070;2023-09-18T06:24:35;13.35;;;9.00;;
77598;SDS011;66758;52.078;5.070;2023-09-18T06:27:01;14.43;;;8.83;;
77598;SDS011;66758;52.078;5.070;2023-09-18T06:29:31;12.43;;;8.50;;
77598;SDS011;66758;52.078;5.070;2023-09-18T06:31:57;11.23;;;8.02;;
77598;SDS011;66758;52.078;5.070;2023-09-18T06:34:23;10.57;;;7.40;;
77598;SDS011;66758;52.078;5.070;2023-09-18T06:36:48;10.93;;;7.47;;
77598;SDS011;66758;52.078;5.070;2023-09-18T06:39:14;14.90;;;7.72;;
77598;SDS011;66758;52.078;5.070;2023-09-18T06:41:40;11.37;;;7.20;;
77598;SDS011;66758;52.078;5.070;2023-09-18T06:44:05;13.73;;;7.40;;
77598;SDS011;66758;52.078;5.070;2023-09-18T06:46:31;11.17;;;7.43;;
77598;SDS011;66758;52.078;5.070;2023-09-18T06:48:56;10.37;;;7.10;;
77598;SDS011;66758;52.078;5.070;2023-09-18T06:51:24;10.80;;;7.40;;
77598;SDS011;66758;52.078;5.070;2023-09-18T06:53:50;14.93;;;7.63;;
77598;SDS011;66758;52.078;5.070;2023-09-18T06:56:15;12.65;;;7.75;;
77598;SDS011;66758;52.078;5.070;2023-09-18T06:58:41;12.17;;;7.40;;
77598;SDS011;66758;52.078;5.070;2023-09-18T07:01:06;11.50;;;8.17;;
77598;SDS011;66758;52.078;5.070;2023-09-18T07:03:34;10.68;;;7.22;;
77598;SDS011;66758;52.078;5.070;2023-09-18T07:06:01;12.20;;;7.47;;
77598;SDS011;66758;52.078;5.070;2023-09-18T07:08:27;12.33;;;7.53;;
77598;SDS011;66758;52.078;5.070;2023-09-18T07:10:52;13.77;;;8.35;;
77598;SDS011;66758;52.078;5.070;2023-09-18T07:13:18;11.87;;;7.60;;
77598;SDS011;66758;52.078;5.070;2023-09-18T07:15:44;14.82;;;8.27;;
77598;SDS011;66758;52.078;5.070;2023-09-18T07:18:09;12.33;;;7.70;;
77598;SDS011;66758;52.078;5.070;2023-09-18T07:20:39;13.35;;;8.00;;
77598;SDS011;66758;52.078;5.070;2023-09-18T07:23:10;12.20;;;7.90;;
77598;SDS011;66758;52.078;5.070;2023-09-18T07:25:36;14.98;;;9.20;;
77598;SDS011;66758;52.078;5.070;2023-09-18T07:28:07;11.00;;;7.43;;
77598;SDS011;66758;52.078;5.070;2023-09-18T07:30:34;10.57;;;7.80;;
77598;SDS011;66758;52.078;5.070;2023-09-18T07:33:02;11.50;;;7.78;;
77598;SDS011;66758;52.078;5.070;2023-09-18T07:35:28;13.52;;;7.22;;
77598;SDS011;66758;52.078;5.070;2023-09-18T07:37:53;8.83;;;6.43;;
77598;SDS011;66758;52.078;5.070;2023-09-18T07:40:19;11.27;;;7.50;;
77598;SDS011;66758;52.078;5.070;2023-09-18T07:42:44;12.10;;;7.23;;
77598;SDS011;66758;52.078;5.070;2023-09-18T07:45:10;12.27;;;6.82;;
77598;SDS011;66758;52.078;5.070;2023-09-18T07:47:37;10.67;;;7.10;;
77598;SDS011;66758;52.078;5.070;2023-09-18T07:50:02;13.77;;;7.78;;
77598;SDS011;66758;52.078;5.070;2023-09-18T07:52:28;13.57;;;7.70;;
77598;SDS011;66758;52.078;5.070;2023-09-18T07:54:55;11.77;;;7.43;;
77598;SDS011;66758;52.078;5.070;2023-09-18T07:57:23;9.48;;;7.45;;
77598;SDS011;66758;52.078;5.070;2023-09-18T07:59:48;11.68;;;7.03;;
77598;SDS011;66758;52.078;5.070;2023-09-18T08:02:14;11.20;;;7.53;;
77598;SDS011;66758;52.078;5.070;2023-09-18T08:04:40;11.68;;;7.35;;
77598;SDS011;66758;52.078;5.070;2023-09-18T08:07:07;11.88;;;7.47;;
77598;SDS011;66758;52.078;5.070;2023-09-18T08:09:33;12.73;;;6.90;;
77598;SDS011;66758;52.078;5.070;2023-09-18T08:12:05;10.57;;;7.00;;
77598;SDS011;66758;52.078;5.070;2023-09-18T08:14:32;10.47;;;6.97;;
77598;SDS011;66758;52.078;5.070;2023-09-18T08:17:00;10.82;;;7.13;;
77598;SDS011;66758;52.078;5.070;2023-09-18T08:19:26;10.50;;;7.30;;
77598;SDS011;66758;52.078;5.070;2023-09-18T08:21:55;8.05;;;6.65;;
77598;SDS011;66758;52.078;5.070;2023-09-18T08:24:25;8.52;;;6.03;;
77598;SDS011;66758;52.078;5.070;2023-09-18T08:26:50;9.47;;;6.77;;
77598;SDS011;66758;52.078;5.070;2023-09-18T08:29:17;11.90;;;6.25;;
77598;SDS011;66758;52.078;5.070;2023-09-18T08:31:43;10.25;;;6.20;;
77598;SDS011;66758;52.078;5.070;2023-09-18T08:34:08;9.23;;;6.10;;
77598;SDS011;66758;52.078;5.070;2023-09-18T08:36:34;12.68;;;5.57;;
77598;SDS011;66758;52.078;5.070;2023-09-18T08:38:59;11.40;;;5.70;;
77598;SDS011;66758;52.078;5.070;2023-09-18T08:41:24;6.83;;;5.07;;
77598;SDS011;66758;52.078;5.070;2023-09-18T08:43:59;8.73;;;4.70;;
77598;SDS011;66758;52.078;5.070;2023-09-18T08:46:26;8.63;;;4.50;;
77598;SDS011;66758;52.078;5.070;2023-09-18T08:48:52;7.63;;;4.87;;
77598;SDS011;66758;52.078;5.070;2023-09-18T08:51:18;8.15;;;4.03;;
77598;SDS011;66758;52.078;5.070;2023-09-18T08:53:44;9.63;;;5.18;;
77598;SDS011;66758;52.078;5.070;2023-09-18T08:56:11;7.93;;;5.20;;
77598;SDS011;66758;52.078;5.070;2023-09-18T08:58:38;7.40;;;5.13;;
77598;SDS011;66758;52.078;5.070;2023-09-18T09:01:07;8.48;;;5.32;;
77598;SDS011;66758;52.078;5.070;2023-09-18T09:03:41;6.53;;;4.72;;
77598;SDS011;66758;52.078;5.070;2023-09-18T09:06:08;7.35;;;4.57;;
77598;SDS011;66758;52.078;5.070;2023-09-18T09:08:34;6.55;;;4.85;;
77598;SDS011;66758;52.078;5.070;2023-09-18T09:11:01;10.90;;;4.47;;
77598;SDS011;66758;52.078;5.070;2023-09-18T09:13:27;6.93;;;4.55;;
77598;SDS011;66758;52.078;5.070;2023-09-18T09:16:01;8.67;;;4.53;;
77598;SDS011;66758;52.078;5.070;2023-09-18T09:18:28;6.50;;;4.33;;
77598;SDS011;66758;52.078;5.070;2023-09-18T09:20:57;7.05;;;4.70;;
77598;SDS011;66758;52.078;5.070;2023-09-18T09:23:24;6.45;;;4.40;;
77598;SDS011;66758;52.078;5.070;2023-09-18T09:25:50;8.13;;;4.90;;
77598;SDS011;66758;52.078;5.070;2023-09-18T09:28:16;5.77;;;4.40;;
77598;SDS011;66758;52.078;5.070;2023-09-18T09:30:44;6.90;;;4.97;;
77598;SDS011;66758;52.078;5.070;2023-09-18T09:33:11;7.83;;;4.97;;
77598;SDS011;66758;52.078;5.070;2023-09-18T09:35:37;7.03;;;4.70;;
77598;SDS011;66758;52.078;5.070;2023-09-18T09:38:07;6.85;;;5.28;;
77598;SDS011;66758;52.078;5.070;2023-09-18T09:40:33;9.27;;;5.50;;
77598;SDS011;66758;52.078;5.070;2023-09-18T09:43:00;8.40;;;5.80;;
77598;SDS011;66758;52.078;5.070;2023-09-18T09:45:29;7.15;;;5.90;;
77598;SDS011;66758;52.078;5.070;2023-09-18T09:47:56;6.60;;;5.80;;
77598;SDS011;66758;52.078;5.070;2023-09-18T09:50:23;6.78;;;5.88;;
77598;SDS011;66758;52.078;5.070;2023-09-18T09:52:51;8.73;;;6.33;;
77598;SDS011;66758;52.078;5.070;2023-09-18T09:55:29;11.02;;;6.45;;
77598;SDS011;66758;52.078;5.070;2023-09-18T09:57:57;7.25;;;5.75;;
77598;SDS011;66758;52.078;5.070;2023-09-18T10:00:31;7.65;;;5.88;;
77598;SDS011;66758;52.078;5.070;2023-09-18T10:03:06;7.95;;;5.90;;
77598;SDS011;66758;52.078;5.070;2023-09-18T10:05:37;7.50;;;6.13;;
77598;SDS011;66758;52.078;5.070;2023-09-18T10:10:52;8.40;;;5.38;;
77598;SDS011;66758;52.078;5.070;2023-09-18T10:13:27;6.32;;;4.93;;
77598;SDS011;66758;52.078;5.070;2023-09-18T10:15:57;7.93;;;5.40;;
77598;SDS011;66758;52.078;5.070;2023-09-18T10:24:14;8.85;;;5.15;;
77598;SDS011;66758;52.078;5.070;2023-09-18T10:26:48;7.18;;;5.18;;
77598;SDS011;66758;52.078;5.070;2023-09-18T10:29:28;6.97;;;5.05;;
77598;SDS011;66758;52.078;5.070;2023-09-18T10:31:55;4.80;;;4.13;;
77598;SDS011;66758;52.078;5.070;2023-09-18T10:34:21;8.25;;;4.35;;
77598;SDS011;66758;52.078;5.070;2023-09-18T10:36:49;6.05;;;4.80;;
77598;SDS011;66758;52.078;5.070;2023-09-18T10:39:16;5.65;;;4.85;;
77598;SDS011;66758;52.078;5.070;2023-09-18T10:41:53;8.93;;;4.80;;
77598;SDS011;66758;52.078;5.070;2023-09-18T10:44:20;7.57;;;4.90;;
77598;SDS011;66758;52.078;5.070;2023-09-18T10:46:49;6.25;;;4.63;;
77598;SDS011;66758;52.078;5.070;2023-09-18T10:49:16;5.77;;;4.43;;
77598;SDS011;66758;52.078;5.070;2023-09-18T10:51:42;5.93;;;5.13;;
77598;SDS011;66758;52.078;5.070;2023-09-18T10:54:08;7.87;;;5.30;;
77598;SDS011;66758;52.078;5.070;2023-09-18T10:56:34;6.65;;;4.65;;
77598;SDS011;66758;52.078;5.070;2023-09-18T10:59:00;8.27;;;5.22;;
77598;SDS011;66758;52.078;5.070;2023-09-18T11:01:31;6.28;;;5.25;;
77598;SDS011;66758;52.078;5.070;2023-09-18T11:04:01;8.03;;;5.13;;
77598;SDS011;66758;52.078;5.070;2023-09-18T11:06:28;5.65;;;4.95;;
77598;SDS011;66758;52.078;5.070;2023-09-18T11:09:02;6.05;;;4.95;;
77598;SDS011;66758;52.078;5.070;2023-09-18T11:11:31;7.32;;;5.03;;
77598;SDS011;66758;52.078;5.070;2023-09-18T11:14:00;8.30;;;4.70;;
77598;SDS011;66758;52.078;5.070;2023-09-18T11:19:13;8.73;;;4.57;;
77598;SDS011;66758;52.078;5.070;2023-09-18T11:21:39;6.35;;;4.70;;
77598;SDS011;66758;52.078;5.070;2023-09-18T11:24:09;6.47;;;3.97;;
77598;SDS011;66758;52.078;5.070;2023-09-18T11:26:42;5.20;;;3.67;;
77598;SDS011;66758;52.078;5.070;2023-09-18T11:29:13;6.80;;;4.33;;
77598;SDS011;66758;52.078;5.070;2023-09-18T11:34:14;7.38;;;4.15;;
77598;SDS011;66758;52.078;5.070;2023-09-18T11:36:44;6.90;;;4.05;;
77598;SDS011;66758;52.078;5.070;2023-09-18T11:39:09;5.87;;;3.77;;
77598;SDS011;66758;52.078;5.070;2023-09-18T11:41:36;7.28;;;4.35;;
77598;SDS011;66758;52.078;5.070;2023-09-18T11:46:37;5.22;;;4.35;;
77598;SDS011;66758;52.078;5.070;2023-09-18T11:49:05;5.87;;;3.77;;
77598;SDS011;66758;52.078;5.070;2023-09-18T11:51:32;7.28;;;3.80;;
77598;SDS011;66758;52.078;5.070;2023-09-18T11:53:58;5.30;;;3.92;;
77598;SDS011;66758;52.078;5.070;2023-09-18T11:56:24;6.20;;;4.20;;
77598;SDS011;66758;52.078;5.070;2023-09-18T11:58:50;6.03;;;4.40;;
77598;SDS011;66758;52.078;5.070;2023-09-18T12:01:20;4.65;;;3.65;;
77598;SDS011;66758;52.078;5.070;2023-09-18T12:03:52;4.60;;;3.73;;
77598;SDS011;66758;52.078;5.070;2023-09-18T12:06:38;5.15;;;4.13;;
77598;SDS011;66758;52.078;5.070;2023-09-18T12:09:04;6.35;;;4.30;;
77598;SDS011;66758;52.078;5.070;2023-09-18T12:11:30;6.20;;;3.80;;
77598;SDS011;66758;52.078;5.070;2023-09-18T12:13:59;6.45;;;4.28;;
77598;SDS011;66758;52.078;5.070;2023-09-18T12:16:25;8.80;;;4.20;;
77598;SDS011;66758;52.078;5.070;2023-09-18T12:18:52;5.93;;;3.83;;
77598;SDS011;66758;52.078;5.070;2023-09-18T12:21:17;4.73;;;3.60;;
77598;SDS011;66758;52.078;5.070;2023-09-18T12:23:44;5.60;;;3.37;;
77598;SDS011;66758;52.078;5.070;2023-09-18T12:26:11;6.47;;;3.85;;
77598;SDS011;66758;52.078;5.070;2023-09-18T12:28:41;4.03;;;3.00;;
77598;SDS011;66758;52.078;5.070;2023-09-18T12:31:11;7.20;;;2.90;;
77598;SDS011;66758;52.078;5.070;2023-09-18T12:33:38;5.47;;;3.40;;
77598;SDS011;66758;52.078;5.070;2023-09-18T12:36:05;5.70;;;3.50;;
77598;SDS011;66758;52.078;5.070;2023-09-18T12:38:31;4.95;;;3.10;;
77598;SDS011;66758;52.078;5.070;2023-09-18T12:40:57;7.47;;;3.90;;
77598;SDS011;66758;52.078;5.070;2023-09-18T12:43:32;5.43;;;3.30;;
77598;SDS011;66758;52.078;5.070;2023-09-18T12:45:59;5.95;;;3.40;;
77598;SDS011;66758;52.078;5.070;2023-09-18T12:48:24;5.83;;;3.33;;
77598;SDS011;66758;52.078;5.070;2023-09-18T12:50:51;5.55;;;3.40;;
77598;SDS011;66758;52.078;5.070;2023-09-18T12:53:21;4.25;;;3.50;;
77598;SDS011;66758;52.078;5.070;2023-09-18T12:55:48;5.87;;;3.27;;
77598;SDS011;66758;52.078;5.070;2023-09-18T12:58:18;5.13;;;3.33;;
77598;SDS011;66758;52.078;5.070;2023-09-18T13:00:47;7.00;;;4.28;;
77598;SDS011;66758;52.078;5.070;2023-09-18T13:03:17;6.18;;;4.63;;
77598;SDS011;66758;52.078;5.070;2023-09-18T13:05:43;5.88;;;4.47;;
77598;SDS011;66758;52.078;5.070;2023-09-18T13:08:08;6.97;;;5.23;;
77598;SDS011;66758;52.078;5.070;2023-09-18T13:10:47;7.60;;;5.70;;
77598;SDS011;66758;52.078;5.070;2023-09-18T13:13:18;7.80;;;5.70;;
77598;SDS011;66758;52.078;5.070;2023-09-18T13:15:45;8.90;;;5.70;;
77598;SDS011;66758;52.078;5.070;2023-09-18T13:18:12;7.80;;;4.97;;
77598;SDS011;66758;52.078;5.070;2023-09-18T13:20:38;10.55;;;5.40;;
77598;SDS011;66758;52.078;5.070;2023-09-18T13:23:05;8.80;;;5.65;;
77598;SDS011;66758;52.078;5.070;2023-09-18T13:25:35;7.90;;;4.65;;
77598;SDS011;66758;52.078;5.070;2023-09-18T13:28:12;6.77;;;4.57;;
77598;SDS011;66758;52.078;5.070;2023-09-18T13:30:40;6.88;;;4.88;;
77598;SDS011;66758;52.078;5.070;2023-09-18T13:33:07;7.22;;;4.75;;
77598;SDS011;66758;52.078;5.070;2023-09-18T13:35:37;5.03;;;4.05;;
77598;SDS011;66758;52.078;5.070;2023-09-18T13:38:07;5.70;;;3.53;;
77598;SDS011;66758;52.078;5.070;2023-09-18T13:40:34;4.70;;;4.03;;
77598;SDS011;66758;52.078;5.070;2023-09-18T13:43:03;6.10;;;3.85;;
77598;SDS011;66758;52.078;5.070;2023-09-18T13:45:30;4.75;;;4.13;;
77598;SDS011;66758;52.078;5.070;2023-09-18T13:47:56;6.30;;;3.92;;
77598;SDS011;66758;52.078;5.070;2023-09-18T13:50:21;5.87;;;3.90;;
77598;SDS011;66758;52.078;5.070;2023-09-18T13:52:47;4.77;;;3.60;;
77598;SDS011;66758;52.078;5.070;2023-09-18T13:55:12;7.20;;;3.90;;
77598;SDS011;66758;52.078;5.070;2023-09-18T13:57:38;4.77;;;3.60;;
77598;SDS011;66758;52.078;5.070;2023-09-18T14:00:05;3.83;;;2.97;;
77598;SDS011;66758;52.078;5.070;2023-09-18T14:02:36;4.78;;;2.78;;
77598;SDS011;66758;52.078;5.070;2023-09-18T14:05:02;5.50;;;2.47;;
77598;SDS011;66758;52.078;5.070;2023-09-18T14:07:28;4.30;;;2.50;;
77598;SDS011;66758;52.078;5.070;2023-09-18T14:09:54;4.97;;;2.37;;
77598;SDS011;66758;52.078;5.070;2023-09-18T14:12:19;4.87;;;2.90;;
77598;SDS011;66758;52.078;5.070;2023-09-18T14:14:45;4.70;;;2.50;;
77598;SDS011;66758;52.078;5.070;2023-09-18T14:17:11;4.30;;;2.33;;
77598;SDS011;66758;52.078;5.070;2023-09-18T14:19:36;5.45;;;2.70;;
77598;SDS011;66758;52.078;5.070;2023-09-18T14:22:05;5.65;;;2.40;;
77598;SDS011;66758;52.078;5.070;2023-09-18T14:24:31;4.95;;;2.58;;
77598;SDS011;66758;52.078;5.070;2023-09-18T14:27:02;4.33;;;2.60;;
77598;SDS011;66758;52.078;5.070;2023-09-18T14:29:29;5.43;;;2.58;;
77598;SDS011;66758;52.078;5.070;2023-09-18T14:32:00;5.47;;;2.50;;
77598;SDS011;66758;52.078;5.070;2023-09-18T14:34:27;3.85;;;2.63;;
77598;SDS011;66758;52.078;5.070;2023-09-18T14:36:52;4.33;;;2.40;;
77598;SDS011;66758;52.078;5.070;2023-09-18T14:39:19;5.93;;;2.40;;
77598;SDS011;66758;52.078;5.070;2023-09-18T14:41:44;2.90;;;1.90;;
77598;SDS011;66758;52.078;5.070;2023-09-18T14:44:09;4.30;;;2.23;;
77598;SDS011;66758;52.078;5.070;2023-09-18T14:46:36;6.50;;;2.60;;
77598;SDS011;66758;52.078;5.070;2023-09-18T14:49:05;6.43;;;2.42;;
77598;SDS011;66758;52.078;5.070;2023-09-18T14:51:32;4.10;;;2.30;;
77598;SDS011;66758;52.078;5.070;2023-09-18T14:53:59;6.38;;;2.78;;
77598;SDS011;66758;52.078;5.070;2023-09-18T14:56:25;5.80;;;3.20;;